Hovedside
METAR-TAF:

METAR-TAF

Lufthavner :

Churchill, Manitoba, Canada

breddegrad: 58-44N, lengdegrad: 094-04W, høyde over havet: 28 m

Gjeldene værobservasjon

Denne rapporten ble laget for 23 minutter siden, klokken 12:00 UTC
Vind 4 kt fra Nord
Temperatur 9°C
Luftfuktighet 87%
Trykk 1015 hPa
Sikt: 24.1 km
Få skyer i en høyde av 1000 ft

METAR: CYYQ 161200Z 36004KT 15SM FEW010 09/07 A2998 RMK CU1 CU TR SLP155

Tid: 07:23 (12:23 UTC)

Varsel

Denne rapporten ble laget for 45 minutter siden, klokken 11:38 UTC
Varsel gyldig fra 16. klokken 12 UTC til 17. klokken 12 UTC
Vind 6 kt fra Nord-nordøst
Sikt: 10 km
Få skyer i en høyde av 1000 ft
Fra 16. klokken 1600 UTC
Vind 10 kt fra Vest
Sikt: 10 km
Skyfri himmel
Blir
fra 16. klokken 20 UTC til 16. klokken 22 UTC
Vind 12 kt fra Vest-sørvest

TAF: CYYQ 161138Z 1612/1712 02006KT P6SM FEW010 FM161600 28010KT P6SM SKC BECMG 1620/1622 25012KT RMK NXT FCST BY 161800Z

Værobservasjoner og værvarsel for over 4000 flyplasser (METAR- og TAF-rapporter).

Tilgjengelige stasjoner er representert av de røde og gule prikkene på kartet.

Hold musepekeren over prikken for å se navnet på stasjonen.

Klikk så for å se værobservasjoner og -varsler.

For å forandre kartet kan du klikke på den grønne knappen med svart kryss for å zoome inn, på den grønne knappen med strek for å zoome ut, eller på de grønne pilene for å se tilstøtende kart.


METAR-TAF: